Time;durP1;ratioP1;P1;durP2;ratioP2;P2;SDS_P1;SDS_P2;PMS_P1;PMS_P2;Temp;Humidity;BMP_temperature;BMP_pressure;BME280_temperature;BME280_humidity;BME280_pressure;Samples;Min_cycle;Max_cycle;Signal;HPM_P1;HPM_P2
2023/07/13 03:25:34;;;;;;;3.30;1.40;;;18.50;62.10;;;;;;5083936;27;20466;-65
2023/07/13 03:28:02;;;;;;;5.55;1.73;;;20.10;51.50;;;;;;4999603;28;20050;-65
2023/07/13 03:30:29;;;;;;;3.70;1.67;;;19.80;53.90;;;;;;5001400;28;20080;-70
2023/07/13 03:32:57;;;;;;;110.68;55.20;;;19.60;55.10;;;;;;4992079;28;20034;-73
2023/07/13 03:35:24;;;;;;;4.85;1.80;;;19.70;53.70;;;;;;5009018;28;20421;-70
2023/07/13 03:37:52;;;;;;;3.88;1.60;;;21.20;50.50;;;;;;5000996;28;20069;-67
2023/07/13 03:40:19;;;;;;;6.30;1.45;;;21.50;48.20;;;;;;4981454;28;20041;-68
2023/07/13 03:42:50;;;;;;;6.20;1.58;;;21.70;48.50;;;;;;4984997;28;20085;-69
2023/07/13 03:45:17;;;;;;;3.13;1.60;;;21.70;48.20;;;;;;4994648;28;20464;-70
2023/07/13 03:47:45;;;;;;;6.70;1.30;;;21.70;48.10;;;;;;4997599;28;20025;-69
2023/07/13 03:50:12;;;;;;;4.13;1.42;;;21.70;48.10;;;;;;4996321;28;20038;-68
2023/07/13 03:52:40;;;;;;;3.38;1.13;;;21.40;47.50;;;;;;4998686;28;20157;-69
2023/07/13 03:55:08;;;;;;;3.28;1.27;;;21.20;48.70;;;;;;4998917;28;20464;-70
2023/07/13 03:57:35;;;;;;;3.15;1.60;;;21.10;48.70;;;;;;4997421;28;20045;-70
2023/07/13 04:00:02;;;;;;;2.78;1.10;;;20.90;48.20;;;;;;4997421;28;20065;-70
2023/07/13 04:02:30;;;;;;;4.30;1.02;;;20.70;48.50;;;;;;4992487;28;20037;-69
2023/07/13 04:04:57;;;;;;;5.28;1.00;;;20.70;47.70;;;;;;4989877;28;20067;-69
2023/07/13 04:07:26;;;;;;;3.33;0.90;;;20.50;48.60;;;;;;5002263;28;20387;-69
2023/07/13 04:09:53;;;;;;;2.83;1.20;;;20.30;48.80;;;;;;4994734;28;20486;-69
2023/07/13 04:12:21;;;;;;;3.55;0.90;;;20.30;48.90;;;;;;5014372;28;20545;-70
2023/07/13 04:14:49;;;;;;;1.50;1.00;;;20.20;49.50;;;;;;4996167;28;20018;-67
2023/07/13 04:17:16;;;;;;;2.20;0.82;;;20.30;49.30;;;;;;4998859;28;20037;-69
2023/07/13 04:19:44;;;;;;;2.55;1.27;;;20.40;48.80;;;;;;4999155;28;20034;-69
2023/07/13 04:22:11;;;;;;;2.47;1.00;;;20.40;48.70;;;;;;5013300;28;20549;-69
2023/07/13 04:24:40;;;;;;;2.47;1.15;;;20.10;49.00;;;;;;4996565;28;20084;-68
2023/07/13 04:27:08;;;;;;;2.78;1.20;;;20.10;49.20;;;;;;4992029;28;20126;-69
2023/07/13 04:29:35;;;;;;;4.63;1.20;;;20.10;49.60;;;;;;4999478;28;20109;-67
2023/07/13 04:32:03;;;;;;;3.38;1.27;;;20.10;48.70;;;;;;5001187;28;20108;-67
2023/07/13 04:34:31;;;;;;;6.82;0.98;;;20.10;49.80;;;;;;4996795;28;20044;-68
2023/07/13 04:37:00;;;;;;;2.83;1.30;;;20.00;50.10;;;;;;4992708;28;20045;-68
2023/07/13 04:39:27;;;;;;;1.85;1.02;;;19.90;49.50;;;;;;4980518;28;20030;-68
2023/07/13 04:41:55;;;;;;;57.17;7.18;;;19.70;49.90;;;;;;4988521;28;20081;-68
2023/07/13 04:44:23;;;;;;;39.67;6.15;;;19.80;49.60;;;;;;4978695;28;20042;-69
2023/07/13 04:46:50;;;;;;;6.03;1.30;;;19.80;50.20;;;;;;4982146;28;20117;-68
2023/07/13 04:49:18;;;;;;;20.67;2.42;;;19.80;49.90;;;;;;4981772;28;20049;-68
2023/07/13 04:51:45;;;;;;;2.83;1.13;;;19.80;49.90;;;;;;4995404;28;20058;-71
2023/07/13 04:54:13;;;;;;;3.15;1.00;;;19.80;49.20;;;;;;4998775;28;20129;-69
2023/07/13 04:56:40;;;;;;;11.60;1.75;;;19.80;49.60;;;;;;4980137;28;20062;-68
2023/07/13 04:59:08;;;;;;;9.38;1.70;;;19.90;49.00;;;;;;4984598;28;20042;-69
2023/07/13 05:01:35;;;;;;;6.40;1.95;;;19.90;49.20;;;;;;4981067;28;20026;-69
2023/07/13 05:04:03;;;;;;;10.40;1.67;;;19.90;49.30;;;;;;4985802;28;20128;-69
2023/07/13 05:06:31;;;;;;;30.27;3.83;;;19.90;49.50;;;;;;4978828;28;20507;-69
2023/07/13 05:08:58;;;;;;;5.70;1.70;;;19.80;49.40;;;;;;4993722;28;20035;-70
2023/07/13 05:11:26;;;;;;;12.48;1.38;;;19.90;49.70;;;;;;4986636;28;20364;-70
2023/07/13 05:13:53;;;;;;;3.15;1.23;;;19.90;49.40;;;;;;4979046;28;20034;-69
2023/07/13 05:16:21;;;;;;;2.33;1.20;;;19.80;48.60;;;;;;4983541;28;20042;-69
2023/07/13 05:18:48;;;;;;;12.43;1.88;;;19.80;49.30;;;;;;4982102;28;20045;-70
2023/07/13 05:21:17;;;;;;;3.17;1.10;;;19.90;49.30;;;;;;4994577;28;21322;-70
2023/07/13 05:23:44;;;;;;;4.90;1.10;;;19.90;49.50;;;;;;4984023;28;20097;-70
2023/07/13 05:26:12;;;;;;;4.20;1.30;;;19.80;49.90;;;;;;4979965;28;20113;-70
2023/07/13 05:28:40;;;;;;;3.58;1.60;;;19.70;50.30;;;;;;4978322;28;20065;-69
2023/07/13 05:31:11;;;;;;;8.32;1.40;;;19.80;49.60;;;;;;4985593;28;20025;-69
2023/07/13 05:33:39;;;;;;;4.47;1.92;;;19.70;50.30;;;;;;4985492;28;20077;-70
2023/07/13 05:36:07;;;;;;;4.93;1.83;;;19.80;49.40;;;;;;5000220;28;20077;-69
2023/07/13 05:38:34;;;;;;;6.18;1.25;;;19.70;49.50;;;;;;4983923;28;20031;-69
2023/07/13 05:41:02;;;;;;;4.45;1.10;;;19.70;49.50;;;;;;4995937;28;20076;-69
2023/07/13 05:43:29;;;;;;;2.65;0.93;;;19.70;49.80;;;;;;4995157;28;20504;-69
2023/07/13 05:45:57;;;;;;;2.78;1.50;;;19.80;49.40;;;;;;4986681;28;20368;-70
2023/07/13 05:48:25;;;;;;;7.20;1.40;;;19.60;50.20;;;;;;4998511;28;20153;-69
2023/07/13 05:50:53;;;;;;;2.25;1.10;;;19.70;49.90;;;;;;4995181;28;20412;-70
2023/07/13 05:53:20;;;;;;;4.07;1.30;;;19.60;50.20;;;;;;4985119;28;20026;-69
2023/07/13 05:55:52;;;;;;;6.63;1.38;;;19.60;50.10;;;;;;4984126;28;20029;-69
2023/07/13 05:58:20;;;;;;;2.15;1.35;;;19.60;50.10;;;;;;4980861;28;20034;-70
2023/07/13 06:00:48;;;;;;;3.78;1.70;;;19.60;50.40;;;;;;4986379;28;20029;-71
2023/07/13 06:03:16;;;;;;;3.65;1.25;;;19.70;51.20;;;;;;4988053;28;20543;-69
2023/07/13 06:05:43;;;;;;;1.92;1.00;;;19.60;49.70;;;;;;4988401;28;20022;-69
2023/07/13 06:08:11;;;;;;;3.58;1.30;;;19.70;49.60;;;;;;4986967;28;20039;-70
2023/07/13 06:10:38;;;;;;;2.92;1.52;;;19.70;49.80;;;;;;4982456;28;20023;-69
2023/07/13 06:13:05;;;;;;;3.78;1.63;;;19.70;49.70;;;;;;4999881;28;20026;-69
2023/07/13 06:15:33;;;;;;;5.38;1.67;;;19.80;49.50;;;;;;4992549;28;20026;-68
2023/07/13 06:18:00;;;;;;;2.35;1.10;;;20.00;49.50;;;;;;4983830;28;20058;-68
2023/07/13 06:20:28;;;;;;;3.38;2.08;;;20.00;49.20;;;;;;4984456;28;20085;-67
2023/07/13 06:22:56;;;;;;;5.63;1.42;;;20.00;49.90;;;;;;4982720;28;20430;-68
2023/07/13 06:25:23;;;;;;;4.47;1.35;;;20.00;49.90;;;;;;4995968;28;20137;-67
2023/07/13 06:27:51;;;;;;;3.88;1.30;;;20.00;50.00;;;;;;4984587;28;20517;-68
2023/07/13 06:30:18;;;;;;;3.08;1.27;;;20.00;49.70;;;;;;4979265;28;20511;-67
2023/07/13 06:32:45;;;;;;;6.50;1.88;;;20.00;50.00;;;;;;4982099;28;20033;-72
2023/07/13 06:35:13;;;;;;;6.55;1.38;;;19.90;50.00;;;;;;4983405;28;20034;-69
2023/07/13 06:37:41;;;;;;;7.80;1.38;;;19.90;50.60;;;;;;4977261;28;20535;-68
2023/07/13 06:40:09;;;;;;;4.22;1.27;;;19.80;51.20;;;;;;4980974;28;20036;-68
2023/07/13 06:42:38;;;;;;;3.33;1.20;;;19.60;50.90;;;;;;4980885;28;20035;-68
2023/07/13 06:45:06;;;;;;;2.95;1.50;;;19.40;51.70;;;;;;4975492;28;20052;-71
2023/07/13 06:47:33;;;;;;;3.92;1.50;;;19.10;52.50;;;;;;4979412;28;20034;-71
2023/07/13 06:50:01;;;;;;;3.78;1.92;;;18.80;52.80;;;;;;4975204;28;20081;-70
2023/07/13 06:52:29;;;;;;;4.07;1.55;;;18.50;53.80;;;;;;4981804;28;20081;-70
2023/07/13 06:54:56;;;;;;;4.85;2.90;;;18.20;55.30;;;;;;4977937;28;20030;-70
2023/07/13 06:57:23;;;;;;;9.05;2.80;;;17.90;55.50;;;;;;4984358;28;20129;-70
2023/07/13 06:59:51;;;;;;;8.82;2.85;;;17.80;56.00;;;;;;4982182;28;20125;-70
2023/07/13 07:02:18;;;;;;;10.27;3.60;;;17.80;56.00;;;;;;5003622;28;20058;-71
2023/07/13 07:04:45;;;;;;;5.65;2.58;;;17.70;56.50;;;;;;4979256;28;20126;-71
2023/07/13 07:07:13;;;;;;;5.78;3.30;;;17.60;57.90;;;;;;4982357;28;20118;-70
2023/07/13 07:09:40;;;;;;;8.57;3.05;;;17.30;57.40;;;;;;4981381;28;21922;-71
2023/07/13 07:12:08;;;;;;;6.70;2.92;;;17.20;57.70;;;;;;4984646;28;20114;-73
2023/07/13 07:14:35;;;;;;;4.18;2.45;;;17.10;58.00;;;;;;4976478;28;20029;-71
2023/07/13 07:17:03;;;;;;;7.88;2.45;;;17.00;58.20;;;;;;4986627;28;20038;-71
2023/07/13 07:19:31;;;;;;;4.88;2.63;;;16.90;59.10;;;;;;4982840;28;20602;-72
2023/07/13 07:21:58;;;;;;;9.88;4.68;;;16.70;60.50;;;;;;4981812;28;20034;-71
2023/07/13 07:24:26;;;;;;;22.23;9.23;;;16.40;61.10;;;;;;4972484;28;20202;-72
2023/07/13 07:26:54;;;;;;;36.50;18.40;;;16.20;62.20;;;;;;4982136;28;20022;-72
2023/07/13 07:29:22;;;;;;;20.27;9.73;;;16.00;62.00;;;;;;4978418;28;20042;-70
2023/07/13 07:31:49;;;;;;;12.65;5.72;;;15.90;62.30;;;;;;4989870;28;20029;-71
2023/07/13 07:34:16;;;;;;;17.10;6.88;;;15.80;62.60;;;;;;4972358;28;20045;-71
2023/07/13 07:36:44;;;;;;;18.10;8.20;;;15.70;62.90;;;;;;4983645;28;20033;-71
2023/07/13 07:39:11;;;;;;;14.52;5.68;;;15.60;63.20;;;;;;4974605;28;20056;-69
2023/07/13 07:41:39;;;;;;;10.07;4.78;;;15.50;63.80;;;;;;4980312;28;20030;-70
2023/07/13 07:44:07;;;;;;;8.57;3.60;;;15.40;64.00;;;;;;4976034;28;20082;-69
2023/07/13 07:46:34;;;;;;;9.65;4.25;;;15.30;64.00;;;;;;4974992;28;20533;-68
2023/07/13 07:49:02;;;;;;;13.35;7.43;;;15.30;64.30;;;;;;4982412;28;20084;-68
2023/07/13 07:51:29;;;;;;;73.05;46.13;;;15.20;65.30;;;;;;4984830;28;20038;-69
2023/07/13 07:53:56;;;;;;;19.35;12.30;;;15.10;65.70;;;;;;4977389;28;20027;-71
2023/07/13 07:56:23;;;;;;;26.08;14.63;;;15.00;66.60;;;;;;4982919;28;20022;-70
2023/07/13 07:58:51;;;;;;;23.00;12.68;;;14.80;66.30;;;;;;4977539;28;20049;-70
2023/07/13 08:01:18;;;;;;;22.60;12.70;;;14.70;67.00;;;;;;4976449;28;20030;-69
2023/07/13 08:03:45;;;;;;;42.40;25.33;;;14.60;67.50;;;;;;4975840;28;20361;-72
2023/07/13 08:06:13;;;;;;;40.17;22.45;;;14.40;67.90;;;;;;4984423;28;20092;-70
2023/07/13 08:08:40;;;;;;;47.63;26.17;;;14.30;68.50;;;;;;4979805;28;20114;-71
2023/07/13 08:11:09;;;;;;;51.83;29.45;;;14.20;69.60;;;;;;4982211;28;20038;-70
2023/07/13 08:13:37;;;;;;;60.60;33.25;;;14.10;69.80;;;;;;4980586;28;20460;-70
2023/07/13 08:16:06;;;;;;;59.60;32.00;;;14.10;70.10;;;;;;4981409;28;20023;-70
2023/07/13 08:18:33;;;;;;;59.10;31.38;;;14.00;69.80;;;;;;4978313;28;20846;-70
2023/07/13 08:21:05;;;;;;;85.38;43.70;;;14.00;70.40;;;;;;4984944;28;20042;-69
2023/07/13 08:23:33;;;;;;;102.63;51.97;;;13.90;70.60;;;;;;4984363;28;20089;-69
2023/07/13 08:26:04;;;;;;;67.10;33.55;;;13.90;71.20;;;;;;4987745;28;20057;-69
2023/07/13 08:28:32;;;;;;;38.38;19.02;;;13.80;71.50;;;;;;4978100;28;20480;-69
2023/07/13 08:31:07;;;;;;;39.35;18.25;;;13.70;72.00;;;;;;4983343;28;20018;-69
2023/07/13 08:33:36;;;;;;;27.48;16.05;;;13.60;73.10;;;;;;4979503;28;21389;-69
2023/07/13 08:36:05;;;;;;;29.85;16.98;;;13.60;73.30;;;;;;4943273;28;20056;-69
2023/07/13 08:38:32;;;;;;;33.63;17.83;;;13.40;73.60;;;;;;4993978;28;20083;-71
2023/07/13 08:40:59;;;;;;;44.70;25.77;;;13.30;74.60;;;;;;4992010;28;20015;-70
2023/07/13 08:43:30;;;;;;;39.40;20.08;;;13.20;74.90;;;;;;4988198;28;20049;-71
2023/07/13 08:46:30;;;;;;;29.52;16.73;;;13.10;75.50;;;;;;4990230;28;20057;-69
2023/07/13 08:49:12;;;;;;;35.53;19.13;;;13.00;75.60;;;;;;4945667;28;20041;-69
2023/07/13 08:51:47;;;;;;;39.55;21.98;;;12.80;76.20;;;;;;4986661;28;20423;-69
2023/07/13 08:54:23;;;;;;;35.75;20.15;;;12.80;77.10;;;;;;4984110;28;20035;-69
2023/07/13 08:56:53;;;;;;;44.10;24.05;;;12.70;77.20;;;;;;4990213;28;20439;-69
2023/07/13 08:59:25;;;;;;;43.20;21.80;;;12.70;77.40;;;;;;4983034;28;20093;-71
2023/07/13 09:02:01;;;;;;;39.35;19.77;;;12.70;77.80;;;;;;4986830;28;20038;-69
2023/07/13 09:04:40;;;;;;;35.33;16.25;;;12.60;78.10;;;;;;4989368;28;20034;-69
2023/07/13 09:07:10;;;;;;;25.55;12.63;;;12.60;78.30;;;;;;4981037;28;20030;-69
2023/07/13 09:10:10;;;;;;;18.15;7.88;;;12.70;78.20;;;;;;4975660;28;20121;-68
2023/07/13 09:12:54;;;;;;;10.40;6.22;;;12.80;77.70;;;;;;4975539;28;20030;-69
2023/07/13 09:15:30;;;;;;;11.77;6.43;;;12.90;76.70;;;;;;4989317;28;20041;-69
2023/07/13 09:18:24;;;;;;;10.23;5.13;;;13.00;76.10;;;;;;4984541;28;20056;-68
2023/07/13 09:21:23;;;;;;;11.30;5.18;;;13.10;75.30;;;;;;4986513;28;20057;-68
2023/07/13 09:23:56;;;;;;;17.00;8.20;;;13.10;74.70;;;;;;4979500;28;20050;-67
2023/07/13 09:26:25;;;;;;;16.33;9.55;;;13.10;74.80;;;;;;5001699;28;20497;-68
2023/07/13 09:28:59;;;;;;;28.67;12.77;;;13.10;75.10;;;;;;4980961;28;20504;-69
2023/07/13 09:31:43;;;;;;;38.10;17.17;;;13.10;75.60;;;;;;4984274;28;20018;-68
2023/07/13 09:34:12;;;;;;;28.45;14.80;;;13.10;76.40;;;;;;4978768;28;20034;-68
2023/07/13 09:36:39;;;;;;;20.58;9.48;;;13.00;76.60;;;;;;4984070;28;20034;-68
2023/07/13 09:39:10;;;;;;;18.58;9.00;;;13.00;76.80;;;;;;4980975;28;20022;-69
2023/07/13 09:41:59;;;;;;;18.13;7.35;;;13.00;76.80;;;;;;4993090;28;20456;-68
2023/07/13 09:44:32;;;;;;;16.35;7.47;;;13.00;76.90;;;;;;4987020;28;20484;-70
2023/07/13 09:46:59;;;;;;;27.23;8.57;;;13.00;77.20;;;;;;4989190;28;20034;-69
2023/07/13 09:49:45;;;;;;;20.88;9.27;;;13.00;76.90;;;;;;4982596;28;20041;-68
2023/07/13 09:52:15;;;;;;;20.88;9.00;;;12.80;77.60;;;;;;4986470;28;20464;-68
2023/07/13 09:54:49;;;;;;;23.33;9.18;;;12.70;77.70;;;;;;4982222;28;20045;-69
2023/07/13 09:57:25;;;;;;;18.92;8.52;;;12.50;78.80;;;;;;5002821;28;20022;-69
2023/07/13 09:59:56;;;;;;;16.08;9.32;;;12.30;80.00;;;;;;4985164;28;20030;-70
2023/07/13 10:02:28;;;;;;;15.40;9.15;;;12.30;81.10;;;;;;4985560;28;20060;-67
2023/07/13 10:05:04;;;;;;;17.85;8.57;;;12.20;81.80;;;;;;4984588;28;20045;-68
2023/07/13 10:07:38;;;;;;;19.90;8.20;;;12.20;82.00;;;;;;4985075;28;20088;-67
2023/07/13 10:10:15;;;;;;;21.55;8.93;;;11.90;80.50;;;;;;4990856;28;20129;-70
2023/07/13 10:12:44;;;;;;;23.60;8.43;;;11.60;82.20;;;;;;4986203;28;20077;-69
2023/07/13 10:15:21;;;;;;;25.50;7.75;;;11.50;82.80;;;;;;4988512;28;20053;-69
2023/07/13 10:17:50;;;;;;;24.20;7.75;;;11.40;83.50;;;;;;4984862;28;20035;-68
2023/07/13 10:20:20;;;;;;;16.65;7.68;;;11.40;83.20;;;;;;4988351;28;20407;-70
2023/07/13 10:23:08;;;;;;;13.93;7.30;;;11.30;83.60;;;;;;4990486;28;20019;-68
2023/07/13 10:25:40;;;;;;;17.35;6.85;;;11.10;83.90;;;;;;4981446;28;20057;-69
2023/07/13 10:28:26;;;;;;;15.95;7.03;;;11.00;84.50;;;;;;4982707;28;20136;-69
2023/07/13 10:30:56;;;;;;;12.73;6.78;;;11.00;85.10;;;;;;4988679;28;20034;-69
2023/07/13 10:33:24;;;;;;;13.00;6.97;;;11.00;84.70;;;;;;4985277;28;20050;-69
2023/07/13 10:36:14;;;;;;;24.98;7.28;;;10.90;85.20;;;;;;4986420;28;20030;-70
2023/07/13 10:38:42;;;;;;;16.85;6.15;;;10.90;85.60;;;;;;4983283;28;20118;-69
2023/07/13 10:41:17;;;;;;;13.07;6.90;;;10.90;86.10;;;;;;4983417;28;20069;-69
2023/07/13 10:43:57;;;;;;;17.08;8.60;;;10.80;87.10;;;;;;4981925;28;20034;-69
2023/07/13 10:46:27;;;;;;;14.65;7.40;;;10.90;87.30;;;;;;4988882;28;20053;-69
2023/07/13 10:49:08;;;;;;;37.92;18.67;;;10.90;87.40;;;;;;4989473;28;20087;-67
2023/07/13 10:51:37;;;;;;;25.58;15.93;;;10.80;87.10;;;;;;4974357;28;20041;-73
2023/07/13 10:54:24;;;;;;;26.30;14.57;;;10.70;86.90;;;;;;4973073;28;20020;-69
2023/07/13 10:57:08;;;;;;;21.17;11.60;;;10.70;87.60;;;;;;4984884;28;20066;-69
2023/07/13 10:59:35;;;;;;;24.73;13.18;;;10.60;87.60;;;;;;4981630;28;20085;-69
2023/07/13 11:02:15;;;;;;;23.88;14.55;;;10.50;88.10;;;;;;4983866;28;20090;-70
2023/07/13 11:04:47;;;;;;;22.02;14.25;;;10.30;88.20;;;;;;4982272;28;20468;-68
2023/07/13 11:07:24;;;;;;;27.52;12.88;;;10.30;88.70;;;;;;4991615;28;20026;-69
2023/07/13 11:09:54;;;;;;;25.42;13.35;;;10.30;89.10;;;;;;4983584;28;20032;-68
2023/07/13 11:12:25;;;;;;;25.63;13.50;;;10.30;88.20;;;;;;4980888;28;20031;-68
2023/07/13 11:14:56;;;;;;;29.10;13.60;;;10.20;89.00;;;;;;4983106;28;20121;-68
2023/07/13 11:17:48;;;;;;;18.50;10.35;;;10.10;89.70;;;;;;4988169;28;20105;-68
2023/07/13 11:20:15;;;;;;;22.15;9.93;;;10.20;89.60;;;;;;4987536;28;20058;-68
2023/07/13 11:22:49;;;;;;;;;;;10.10;89.00;;;;;;4988488;28;20088;-68
2023/07/13 11:25:29;;;;;;;17.55;8.00;;;10.00;88.80;;;;;;4989193;28;20363;-67
2023/07/13 11:28:12;;;;;;;19.80;8.68;;;9.90;89.30;;;;;;4973961;28;20475;-68
2023/07/13 11:30:50;;;;;;;21.17;9.20;;;9.70;89.40;;;;;;4928381;28;20336;-72
2023/07/13 11:33:26;;;;;;;23.77;9.18;;;9.60;89.90;;;;;;4931223;28;20367;-71
2023/07/13 11:36:03;;;;;;;18.52;8.90;;;9.60;90.10;;;;;;4943257;28;20140;-73
2023/07/13 11:38:33;;;;;;;15.70;8.57;;;9.50;90.10;;;;;;4930443;28;20645;-72
2023/07/13 11:41:05;;;;;;;15.48;7.85;;;9.50;90.10;;;;;;4963377;28;20511;-68
2023/07/13 11:43:33;;;;;;;15.13;9.40;;;9.50;90.10;;;;;;4956759;28;20419;-72
2023/07/13 11:46:24;;;;;;;14.52;8.60;;;9.50;89.70;;;;;;4954642;28;20042;-69
2023/07/13 11:48:53;;;;;;;16.38;9.18;;;9.40;90.20;;;;;;4976906;28;20042;-69
2023/07/13 11:51:55;;;;;;;16.77;9.30;;;9.30;90.60;;;;;;4974168;28;20058;-69
2023/07/13 11:54:30;;;;;;;13.35;8.77;;;9.30;90.50;;;;;;4977023;28;20057;-70
2023/07/13 11:57:02;;;;;;;18.33;7.85;;;9.30;90.90;;;;;;4986269;28;20080;-69
2023/07/13 11:59:32;;;;;;;20.75;7.45;;;9.20;91.00;;;;;;4959017;28;20023;-68
2023/07/13 12:01:59;;;;;;;18.80;8.32;;;9.10;91.20;;;;;;4972918;28;20391;-70
2023/07/13 12:04:31;;;;;;;16.85;7.70;;;9.20;91.30;;;;;;4946163;28;20057;-68
2023/07/13 12:07:04;;;;;;;15.88;7.38;;;9.00;91.50;;;;;;4955800;28;20494;-69
2023/07/13 12:09:33;;;;;;;15.35;7.45;;;8.90;91.60;;;;;;4944580;28;20399;-71
2023/07/13 12:12:01;;;;;;;16.50;8.70;;;8.90;91.60;;;;;;4982178;28;20452;-70
2023/07/13 12:14:28;;;;;;;16.27;7.57;;;8.90;91.70;;;;;;4977933;28;20026;-70
2023/07/13 12:16:56;;;;;;;15.90;7.50;;;8.90;91.60;;;;;;4978883;28;20464;-69
2023/07/13 12:19:27;;;;;;;12.30;7.10;;;8.80;91.60;;;;;;4978888;28;20030;-68
2023/07/13 12:21:57;;;;;;;17.73;7.75;;;8.80;91.80;;;;;;4976104;28;20048;-68
2023/07/13 12:24:26;;;;;;;14.23;6.97;;;8.80;92.00;;;;;;5013861;28;21059;-68
2023/07/13 12:27:03;;;;;;;11.65;6.30;;;8.80;91.90;;;;;;4977553;28;20126;-69
2023/07/13 12:29:32;;;;;;;13.88;7.05;;;8.70;91.90;;;;;;4977339;28;20034;-68
2023/07/13 12:32:00;;;;;;;16.13;6.85;;;8.70;91.80;;;;;;4984460;28;20089;-68
2023/07/13 12:34:27;;;;;;;10.73;6.40;;;8.60;91.80;;;;;;4985917;28;20205;-67
2023/07/13 12:37:02;;;;;;;13.90;7.38;;;8.60;91.70;;;;;;4983061;28;20476;-69
2023/07/13 12:39:49;;;;;;;11.05;5.97;;;8.50;91.90;;;;;;4976469;28;20526;-68
2023/07/13 12:42:29;;;;;;;12.45;6.80;;;8.50;91.80;;;;;;4984043;28;20455;-68
2023/07/13 12:45:18;;;;;;;11.57;5.57;;;8.50;91.90;;;;;;4980113;28;20034;-68
2023/07/13 12:47:50;;;;;;;10.25;5.72;;;8.50;92.00;;;;;;4986440;28;20026;-68
2023/07/13 12:50:21;;;;;;;16.23;6.53;;;8.50;92.20;;;;;;4986324;28;20121;-68
2023/07/13 12:52:58;;;;;;;9.88;5.93;;;8.50;92.70;;;;;;5003643;28;20027;-69
2023/07/13 12:55:25;;;;;;;17.05;6.53;;;8.40;92.90;;;;;;4982975;28;20030;-68
2023/07/13 12:58:00;;;;;;;13.18;7.10;;;8.40;93.00;;;;;;4986555;28;20026;-69
2023/07/13 13:00:34;;;;;;;14.32;6.80;;;8.50;93.00;;;;;;4992410;28;20371;-68
2023/07/13 13:03:26;;;;;;;13.52;6.47;;;8.60;92.40;;;;;;4982642;28;20049;-69
2023/07/13 13:06:06;;;;;;;13.50;6.35;;;8.40;92.30;;;;;;4985355;28;20031;-67
2023/07/13 13:08:37;;;;;;;15.77;7.05;;;8.20;92.70;;;;;;4983372;28;20538;-69
2023/07/13 13:11:05;;;;;;;13.23;6.63;;;8.10;92.50;;;;;;4983552;28;20453;-68
2023/07/13 13:13:32;;;;;;;14.15;6.30;;;8.00;92.40;;;;;;4983575;28;20022;-68
2023/07/13 13:16:22;;;;;;;14.02;6.70;;;7.90;92.70;;;;;;4997981;28;20044;-68
2023/07/13 13:18:51;;;;;;;17.60;7.38;;;7.90;92.60;;;;;;4970904;28;20042;-68
2023/07/13 13:21:19;;;;;;;16.65;7.25;;;7.80;92.80;;;;;;4981547;28;20136;-68
2023/07/13 13:23:47;;;;;;;13.27;6.22;;;7.80;93.00;;;;;;4981157;28;20073;-68
2023/07/13 13:26:16;;;;;;;12.05;6.55;;;7.70;93.10;;;;;;4982601;28;20077;-69
2023/07/13 13:28:45;;;;;;;15.32;6.55;;;7.70;93.30;;;;;;4986054;28;20026;-69
2023/07/13 13:31:13;;;;;;;11.70;6.65;;;7.70;93.20;;;;;;4979605;28;20122;-69
2023/07/13 13:33:43;;;;;;;21.83;7.32;;;7.60;93.30;;;;;;4976666;28;20354;-69
2023/07/13 13:36:19;;;;;;;11.35;5.82;;;7.60;93.40;;;;;;4982437;28;20124;-70
2023/07/13 13:38:47;;;;;;;13.05;6.07;;;7.60;93.40;;;;;;4978021;28;20034;-68
2023/07/13 13:41:15;;;;;;;12.43;6.70;;;7.60;93.20;;;;;;4985034;28;20033;-68
2023/07/13 13:43:45;;;;;;;10.60;6.00;;;7.50;93.10;;;;;;4979313;28;20046;-69
2023/07/13 13:46:17;;;;;;;14.18;7.68;;;7.50;93.00;;;;;;4974561;28;20030;-68
2023/07/13 13:48:45;;;;;;;26.05;9.68;;;7.50;93.00;;;;;;4982016;28;20057;-69
2023/07/13 13:51:21;;;;;;;19.80;9.15;;;7.40;93.30;;;;;;4983588;28;20035;-69
2023/07/13 13:53:49;;;;;;;18.02;8.13;;;7.40;93.30;;;;;;4982246;28;20029;-68
2023/07/13 13:56:19;;;;;;;17.90;8.45;;;7.30;93.70;;;;;;4995631;28;20388;-69
2023/07/13 13:58:46;;;;;;;42.13;17.60;;;7.20;93.60;;;;;;4989874;28;20408;-69
2023/07/13 14:01:19;;;;;;;35.00;16.67;;;7.40;93.50;;;;;;4980122;28;20357;-68
2023/07/13 14:03:48;;;;;;;34.30;17.42;;;7.30;93.20;;;;;;4983802;28;20088;-68
2023/07/13 14:06:16;;;;;;;32.50;16.27;;;7.20;93.30;;;;;;4986082;28;20123;-68
2023/07/13 14:08:44;;;;;;;30.83;15.38;;;7.10;93.30;;;;;;4985370;28;20069;-72
2023/07/13 14:11:17;;;;;;;34.22;14.48;;;7.10;93.70;;;;;;4985381;28;20050;-68
2023/07/13 14:13:51;;;;;;;30.88;13.02;;;7.10;93.80;;;;;;4983628;28;20032;-68
2023/07/13 14:16:22;;;;;;;25.95;11.15;;;7.10;93.60;;;;;;4988825;28;20530;-70
2023/07/13 14:25:33;;;;;;;19.83;9.38;;;7.00;94.20;;;;;;4582831;28;20052;-68
2023/07/13 14:28:13;;;;;;;17.75;9.30;;;7.10;94.00;;;;;;4982602;28;20140;-69
2023/07/13 14:30:40;;;;;;;16.67;8.55;;;7.10;94.20;;;;;;4982190;28;20037;-67
2023/07/13 14:33:10;;;;;;;;;;;7.00;94.00;;;;;;4986429;28;20367;-68
2023/07/13 14:35:38;;;;;;;18.60;8.40;;;7.00;94.40;;;;;;4999397;28;19914;-68
2023/07/13 14:38:09;;;;;;;18.77;8.70;;;7.00;94.50;;;;;;4986444;28;20109;-69
2023/07/13 14:40:36;;;;;;;21.90;9.05;;;7.00;94.10;;;;;;4975394;28;20037;-69
2023/07/13 14:43:03;;;;;;;18.52;8.02;;;7.10;94.20;;;;;;4984507;28;20121;-68
2023/07/13 14:45:31;;;;;;;;;;;7.10;94.30;;;;;;4977628;28;20614;-68
2023/07/13 14:47:58;;;;;;;15.05;8.82;;;7.20;94.10;;;;;;4983709;28;19914;-69
2023/07/13 14:50:32;;;;;;;19.70;9.10;;;7.10;94.10;;;;;;4979464;28;21161;-68
2023/07/13 14:53:00;;;;;;;19.92;8.52;;;7.10;94.30;;;;;;4980379;28;21606;-68
2023/07/13 14:55:26;;;;;;;;;;;7.20;94.50;;;;;;4981161;28;20038;-68
2023/07/13 14:57:54;;;;;;;22.27;8.80;;;7.20;94.60;;;;;;4982637;28;19910;-68
2023/07/13 15:00:23;;;;;;;;;;;7.20;94.30;;;;;;4979814;28;20357;-68
2023/07/13 15:02:55;;;;;;;19.75;7.90;;;7.20;94.40;;;;;;4990289;28;19906;-68
2023/07/13 15:05:26;;;;;;;16.05;8.38;;;7.10;94.30;;;;;;4980358;28;20125;-67
2023/07/13 15:07:54;;;;;;;14.52;7.80;;;7.10;94.70;;;;;;4984357;28;20026;-68
2023/07/13 15:10:24;;;;;;;14.10;8.02;;;7.10;94.40;;;;;;4984027;28;20034;-67
2023/07/13 15:13:00;;;;;;;17.55;8.48;;;7.10;94.70;;;;;;5001412;28;21045;-68
2023/07/13 15:15:32;;;;;;;20.70;10.18;;;7.10;94.50;;;;;;4982400;28;20081;-68
2023/07/13 15:18:00;;;;;;;21.00;9.80;;;7.20;94.70;;;;;;4978026;28;20018;-68
2023/07/13 15:20:35;;;;;;;18.48;9.82;;;7.30;95.00;;;;;;4980365;28;20116;-68
2023/07/13 15:23:03;;;;;;;18.73;10.23;;;7.30;95.10;;;;;;4981178;28;20096;-68
2023/07/13 15:25:33;;;;;;;16.15;9.63;;;7.40;95.40;;;;;;4978770;28;20046;-68
2023/07/13 15:28:01;;;;;;;20.92;9.65;;;7.40;95.40;;;;;;4980062;28;20015;-69
2023/07/13 15:30:50;;;;;;;16.92;10.02;;;7.40;95.20;;;;;;4980123;28;20087;-68
2023/07/13 15:33:28;;;;;;;15.63;8.57;;;7.50;95.20;;;;;;4979402;28;20107;-68
2023/07/13 15:35:58;;;;;;;18.50;9.20;;;7.40;95.30;;;;;;4977144;28;20031;-68
2023/07/13 15:38:31;;;;;;;15.40;8.10;;;7.50;95.40;;;;;;4996342;28;20463;-68
2023/07/13 15:40:59;;;;;;;15.93;8.27;;;7.50;95.20;;;;;;4986932;28;20074;-68
2023/07/13 15:43:27;;;;;;;13.45;7.85;;;7.50;95.30;;;;;;4990526;28;20035;-69
2023/07/13 15:45:54;;;;;;;12.43;7.63;;;7.60;95.60;;;;;;4982973;28;20038;-69
2023/07/13 15:48:23;;;;;;;;;;;7.70;95.40;;;;;;4987353;28;20022;-68
2023/07/13 15:51:00;;;;;;;16.38;8.40;;;7.60;95.30;;;;;;4977942;28;20050;-68
2023/07/13 15:53:35;;;;;;;12.77;6.78;;;7.60;95.30;;;;;;4982200;28;20113;-69
2023/07/13 15:56:13;;;;;;;13.15;7.13;;;7.50;95.60;;;;;;4980819;28;20357;-68
2023/07/13 15:58:40;;;;;;;15.32;6.78;;;7.30;95.50;;;;;;4993304;28;20038;-68
2023/07/13 16:01:10;;;;;;;;;;;7.10;94.60;;;;;;4983428;28;20042;-69
2023/07/13 16:03:37;;;;;;;17.00;5.95;;;7.00;94.30;;;;;;4979106;28;19912;-68
2023/07/13 16:06:05;;;;;;;;;;;6.90;94.20;;;;;;4974735;28;20035;-69
2023/07/13 16:08:33;;;;;;;11.00;5.35;;;6.80;94.40;;;;;;4992035;28;20425;-68
2023/07/13 16:11:02;;;;;;;13.38;5.25;;;6.70;94.10;;;;;;4985220;28;20371;-69
2023/07/13 16:13:29;;;;;;;15.52;5.60;;;6.60;94.20;;;;;;4989961;28;20018;-69
2023/07/13 16:15:57;;;;;;;12.45;5.97;;;6.60;94.00;;;;;;4983353;28;20460;-68
2023/07/13 16:18:23;;;;;;;;;;;6.50;94.30;;;;;;4985050;28;20028;-68
2023/07/13 16:20:53;;;;;;;13.45;5.78;;;6.50;94.40;;;;;;4984642;28;19913;-67
2023/07/13 16:23:21;;;;;;;14.07;6.60;;;6.40;94.70;;;;;;4985341;28;20038;-68
2023/07/13 16:25:49;;;;;;;16.20;6.68;;;6.40;94.50;;;;;;4978453;28;20054;-68
2023/07/13 16:28:15;;;;;;;;;;;6.30;94.60;;;;;;4984099;28;20412;-67
2023/07/13 16:30:43;;;;;;;10.82;5.68;;;6.20;94.90;;;;;;4983675;28;20363;-68
2023/07/13 16:33:09;;;;;;;;;;;6.10;95.50;;;;;;4980247;28;20500;-68
2023/07/13 16:35:41;;;;;;;15.35;6.13;;;6.20;95.20;;;;;;4982706;28;19917;-68